sensor_id;sensor_type;location;lat;lon;timestamp;pressure;altitude;pressure_sealevel;temperature;humidity
21234;BME280;10774;42.178;26.578;2022-08-18T00:02:07;99464.50;;;25.41;59.07
21234;BME280;10774;42.178;26.578;2022-08-18T00:04:34;99467.69;;;25.51;59.48
21234;BME280;10774;42.178;26.578;2022-08-18T00:07:04;99476.41;;;25.61;57.83
21234;BME280;10774;42.178;26.578;2022-08-18T00:09:32;99470.41;;;25.38;56.97
21234;BME280;10774;42.178;26.578;2022-08-18T00:12:00;99473.19;;;25.51;56.08
21234;BME280;10774;42.178;26.578;2022-08-18T00:14:27;99472.56;;;25.49;57.24
21234;BME280;10774;42.178;26.578;2022-08-18T00:16:53;99480.50;;;25.30;58.62
21234;BME280;10774;42.178;26.578;2022-08-18T00:19:19;99468.25;;;25.26;58.80
21234;BME280;10774;42.178;26.578;2022-08-18T00:21:44;99471.66;;;25.35;58.95
21234;BME280;10774;42.178;26.578;2022-08-18T00:24:10;99463.56;;;25.20;59.36
21234;BME280;10774;42.178;26.578;2022-08-18T00:26:35;99471.75;;;25.07;58.43
21234;BME280;10774;42.178;26.578;2022-08-18T00:29:01;99469.09;;;24.92;59.17
21234;BME280;10774;42.178;26.578;2022-08-18T00:31:26;99481.53;;;25.16;57.48
21234;BME280;10774;42.178;26.578;2022-08-18T00:33:53;99471.59;;;25.15;56.76
21234;BME280;10774;42.178;26.578;2022-08-18T00:36:21;99472.75;;;25.41;56.12
21234;BME280;10774;42.178;26.578;2022-08-18T00:38:47;99475.25;;;25.36;56.72
21234;BME280;10774;42.178;26.578;2022-08-18T00:41:12;99467.78;;;25.16;59.34
21234;BME280;10774;42.178;26.578;2022-08-18T00:43:47;99480.84;;;25.08;59.68
21234;BME280;10774;42.178;26.578;2022-08-18T00:46:19;99469.00;;;25.07;59.71
21234;BME280;10774;42.178;26.578;2022-08-18T00:48:46;99475.81;;;25.18;58.03
21234;BME280;10774;42.178;26.578;2022-08-18T00:51:40;99477.13;;;25.22;56.99
21234;BME280;10774;42.178;26.578;2022-08-18T00:54:11;99489.69;;;25.51;55.62
21234;BME280;10774;42.178;26.578;2022-08-18T00:56:45;99485.94;;;25.11;63.07
21234;BME280;10774;42.178;26.578;2022-08-18T00:59:16;99479.47;;;24.97;61.10
21234;BME280;10774;42.178;26.578;2022-08-18T01:01:46;99474.38;;;24.94;60.67
21234;BME280;10774;42.178;26.578;2022-08-18T01:04:17;99481.59;;;24.95;60.26
21234;BME280;10774;42.178;26.578;2022-08-18T01:06:52;99472.84;;;25.19;58.31
21234;BME280;10774;42.178;26.578;2022-08-18T01:09:19;99483.28;;;24.96;59.96
21234;BME280;10774;42.178;26.578;2022-08-18T01:11:44;99479.00;;;24.87;60.19
21234;BME280;10774;42.178;26.578;2022-08-18T01:14:11;99489.53;;;24.83;61.76
21234;BME280;10774;42.178;26.578;2022-08-18T01:16:41;99489.53;;;24.83;61.62
21234;BME280;10774;42.178;26.578;2022-08-18T01:19:26;99476.63;;;24.49;61.65
21234;BME280;10774;42.178;26.578;2022-08-18T01:22:22;99482.56;;;24.52;61.69
21234;BME280;10774;42.178;26.578;2022-08-18T01:24:50;99486.31;;;24.45;62.70
21234;BME280;10774;42.178;26.578;2022-08-18T01:27:35;99490.94;;;24.44;63.38
21234;BME280;10774;42.178;26.578;2022-08-18T01:30:05;99484.88;;;24.27;63.26
21234;BME280;10774;42.178;26.578;2022-08-18T01:32:35;99481.91;;;24.29;63.24
21234;BME280;10774;42.178;26.578;2022-08-18T01:35:01;99478.41;;;24.35;62.82
21234;BME280;10774;42.178;26.578;2022-08-18T01:37:27;99479.97;;;24.23;63.38
21234;BME280;10774;42.178;26.578;2022-08-18T01:39:53;99486.09;;;24.25;63.64
21234;BME280;10774;42.178;26.578;2022-08-18T01:42:19;99471.97;;;24.00;64.27
21234;BME280;10774;42.178;26.578;2022-08-18T01:44:46;99467.44;;;23.92;65.39
21234;BME280;10774;42.178;26.578;2022-08-18T01:47:13;99474.03;;;23.98;65.19
21234;BME280;10774;42.178;26.578;2022-08-18T01:49:39;99476.25;;;24.09;65.00
21234;BME280;10774;42.178;26.578;2022-08-18T01:52:15;99480.50;;;24.12;64.74
21234;BME280;10774;42.178;26.578;2022-08-18T01:54:45;99475.88;;;24.12;64.44
21234;BME280;10774;42.178;26.578;2022-08-18T01:57:11;99488.00;;;24.03;63.97
21234;BME280;10774;42.178;26.578;2022-08-18T01:59:38;99470.19;;;23.92;64.33
21234;BME280;10774;42.178;26.578;2022-08-18T02:02:03;99481.00;;;23.94;64.29
21234;BME280;10774;42.178;26.578;2022-08-18T02:04:31;99459.50;;;23.97;64.41
21234;BME280;10774;42.178;26.578;2022-08-18T02:06:58;99459.06;;;23.94;64.62
21234;BME280;10774;42.178;26.578;2022-08-18T02:09:23;99464.91;;;23.91;64.84
21234;BME280;10774;42.178;26.578;2022-08-18T02:11:49;99469.59;;;23.97;64.73
21234;BME280;10774;42.178;26.578;2022-08-18T02:14:14;99477.84;;;23.97;64.78
21234;BME280;10774;42.178;26.578;2022-08-18T02:16:40;99463.75;;;23.79;65.49
21234;BME280;10774;42.178;26.578;2022-08-18T02:19:05;99475.69;;;23.56;66.94
21234;BME280;10774;42.178;26.578;2022-08-18T02:21:31;99473.97;;;23.55;67.72
21234;BME280;10774;42.178;26.578;2022-08-18T02:23:56;99477.41;;;23.57;67.43
21234;BME280;10774;42.178;26.578;2022-08-18T02:26:22;99482.41;;;23.68;67.13
21234;BME280;10774;42.178;26.578;2022-08-18T02:28:48;99482.13;;;23.63;67.42
21234;BME280;10774;42.178;26.578;2022-08-18T02:31:16;99492.78;;;23.58;67.08
21234;BME280;10774;42.178;26.578;2022-08-18T02:33:43;99495.13;;;23.61;66.99
21234;BME280;10774;42.178;26.578;2022-08-18T02:36:08;99480.03;;;23.51;67.06
21234;BME280;10774;42.178;26.578;2022-08-18T02:38:35;99477.13;;;23.52;67.18
21234;BME280;10774;42.178;26.578;2022-08-18T02:41:03;99477.59;;;23.41;67.82
21234;BME280;10774;42.178;26.578;2022-08-18T02:43:30;99479.69;;;23.39;67.70
21234;BME280;10774;42.178;26.578;2022-08-18T02:45:56;99479.47;;;23.55;67.09
21234;BME280;10774;42.178;26.578;2022-08-18T02:48:21;99472.41;;;23.46;67.27
21234;BME280;10774;42.178;26.578;2022-08-18T02:51:09;99493.63;;;23.73;65.82
21234;BME280;10774;42.178;26.578;2022-08-18T02:53:37;99488.69;;;23.84;66.02
21234;BME280;10774;42.178;26.578;2022-08-18T02:56:08;99493.06;;;23.78;71.82
21234;BME280;10774;42.178;26.578;2022-08-18T02:58:41;99482.78;;;23.51;74.19
21234;BME280;10774;42.178;26.578;2022-08-18T03:01:07;99492.31;;;23.69;74.49
21234;BME280;10774;42.178;26.578;2022-08-18T03:03:32;99488.47;;;23.34;77.39
21234;BME280;10774;42.178;26.578;2022-08-18T03:05:58;99484.47;;;23.15;79.03
21234;BME280;10774;42.178;26.578;2022-08-18T03:08:23;99486.69;;;23.41;78.07
21234;BME280;10774;42.178;26.578;2022-08-18T03:10:52;99494.84;;;23.56;77.13
21234;BME280;10774;42.178;26.578;2022-08-18T03:13:17;99497.81;;;23.40;78.56
21234;BME280;10774;42.178;26.578;2022-08-18T03:15:43;99503.28;;;23.40;79.52
21234;BME280;10774;42.178;26.578;2022-08-18T03:18:09;99507.63;;;23.49;80.46
21234;BME280;10774;42.178;26.578;2022-08-18T03:20:36;99500.34;;;23.05;82.53
21234;BME280;10774;42.178;26.578;2022-08-18T03:23:03;99499.84;;;23.02;83.27
21234;BME280;10774;42.178;26.578;2022-08-18T03:25:29;99512.03;;;22.99;83.92
21234;BME280;10774;42.178;26.578;2022-08-18T03:27:54;99503.03;;;23.20;83.07
21234;BME280;10774;42.178;26.578;2022-08-18T03:30:20;99505.53;;;23.00;84.12
21234;BME280;10774;42.178;26.578;2022-08-18T03:32:45;99510.47;;;22.82;85.13
21234;BME280;10774;42.178;26.578;2022-08-18T03:35:12;99509.81;;;22.80;81.94
21234;BME280;10774;42.178;26.578;2022-08-18T03:37:39;99507.69;;;22.90;78.62
21234;BME280;10774;42.178;26.578;2022-08-18T03:40:05;99489.88;;;22.94;76.34
21234;BME280;10774;42.178;26.578;2022-08-18T03:42:31;99489.75;;;23.02;75.56
21234;BME280;10774;42.178;26.578;2022-08-18T03:44:57;99506.38;;;23.15;75.64
21234;BME280;10774;42.178;26.578;2022-08-18T03:47:22;99488.78;;;23.25;75.20
21234;BME280;10774;42.178;26.578;2022-08-18T03:49:48;99506.81;;;23.19;74.53
21234;BME280;10774;42.178;26.578;2022-08-18T03:52:13;99492.41;;;23.10;73.80
21234;BME280;10774;42.178;26.578;2022-08-18T03:54:39;99495.06;;;22.89;74.74
21234;BME280;10774;42.178;26.578;2022-08-18T03:57:08;99495.38;;;22.86;75.03
21234;BME280;10774;42.178;26.578;2022-08-18T03:59:34;99511.72;;;22.79;73.80
21234;BME280;10774;42.178;26.578;2022-08-18T04:02:02;99513.81;;;23.07;73.92
21234;BME280;10774;42.178;26.578;2022-08-18T04:04:29;99504.63;;;22.85;78.06
21234;BME280;10774;42.178;26.578;2022-08-18T04:07:00;99510.25;;;23.06;76.49
21234;BME280;10774;42.178;26.578;2022-08-18T04:09:30;99519.38;;;23.28;80.65
21234;BME280;10774;42.178;26.578;2022-08-18T04:11:58;99509.38;;;22.91;81.55
21234;BME280;10774;42.178;26.578;2022-08-18T04:14:26;99508.41;;;22.84;81.49
21234;BME280;10774;42.178;26.578;2022-08-18T04:16:57;99509.97;;;23.01;79.91
21234;BME280;10774;42.178;26.578;2022-08-18T04:19:23;99514.19;;;23.33;76.09
21234;BME280;10774;42.178;26.578;2022-08-18T04:21:50;99513.88;;;23.43;75.42
21234;BME280;10774;42.178;26.578;2022-08-18T04:24:17;99536.22;;;23.76;71.95
21234;BME280;10774;42.178;26.578;2022-08-18T04:26:44;99521.69;;;23.97;69.05
21234;BME280;10774;42.178;26.578;2022-08-18T04:29:12;99537.94;;;23.98;69.89
21234;BME280;10774;42.178;26.578;2022-08-18T04:31:39;99538.22;;;24.04;69.89
21234;BME280;10774;42.178;26.578;2022-08-18T04:34:05;99537.63;;;24.30;68.25
21234;BME280;10774;42.178;26.578;2022-08-18T04:36:32;99541.16;;;24.23;67.38
21234;BME280;10774;42.178;26.578;2022-08-18T04:38:59;99544.41;;;24.34;68.16
21234;BME280;10774;42.178;26.578;2022-08-18T04:41:26;99526.78;;;24.36;68.27
21234;BME280;10774;42.178;26.578;2022-08-18T04:43:56;99540.50;;;24.64;67.17
21234;BME280;10774;42.178;26.578;2022-08-18T04:46:23;99537.25;;;24.82;64.58
21234;BME280;10774;42.178;26.578;2022-08-18T04:48:48;99545.56;;;24.67;72.20
21234;BME280;10774;42.178;26.578;2022-08-18T04:51:16;99525.88;;;24.85;71.73
21234;BME280;10774;42.178;26.578;2022-08-18T04:53:44;99540.84;;;24.55;74.81
21234;BME280;10774;42.178;26.578;2022-08-18T04:58:47;99548.81;;;24.49;74.95
21234;BME280;10774;42.178;26.578;2022-08-18T05:01:16;99524.84;;;24.15;75.67
21234;BME280;10774;42.178;26.578;2022-08-18T05:03:42;99533.69;;;23.74;76.96
21234;BME280;10774;42.178;26.578;2022-08-18T05:06:09;99532.09;;;24.02;74.88
21234;BME280;10774;42.178;26.578;2022-08-18T05:08:34;99547.69;;;24.65;70.41
21234;BME280;10774;42.178;26.578;2022-08-18T05:11:00;99543.28;;;24.99;67.26
21234;BME280;10774;42.178;26.578;2022-08-18T05:13:25;99550.22;;;25.23;64.77
21234;BME280;10774;42.178;26.578;2022-08-18T05:15:55;99557.75;;;25.49;63.41
21234;BME280;10774;42.178;26.578;2022-08-18T05:18:23;99551.03;;;25.58;60.51
21234;BME280;10774;42.178;26.578;2022-08-18T05:20:54;99555.75;;;25.29;62.60
21234;BME280;10774;42.178;26.578;2022-08-18T05:23:20;99554.09;;;25.76;59.41
21234;BME280;10774;42.178;26.578;2022-08-18T05:25:46;99553.94;;;25.85;59.62
21234;BME280;10774;42.178;26.578;2022-08-18T05:28:12;99557.81;;;26.10;60.08
21234;BME280;10774;42.178;26.578;2022-08-18T05:30:39;99555.00;;;25.49;58.96
21234;BME280;10774;42.178;26.578;2022-08-18T05:33:06;99551.41;;;25.07;60.48
21234;BME280;10774;42.178;26.578;2022-08-18T05:35:36;99561.75;;;25.46;60.66
21234;BME280;10774;42.178;26.578;2022-08-18T05:40:33;99547.00;;;25.13;62.26
21234;BME280;10774;42.178;26.578;2022-08-18T05:43:00;99553.34;;;25.13;62.72
21234;BME280;10774;42.178;26.578;2022-08-18T05:45:26;99540.94;;;24.96;64.57
21234;BME280;10774;42.178;26.578;2022-08-18T05:47:57;99546.00;;;24.99;64.45
21234;BME280;10774;42.178;26.578;2022-08-18T05:50:24;99542.56;;;25.12;64.79
21234;BME280;10774;42.178;26.578;2022-08-18T05:52:52;99556.44;;;25.79;61.95
21234;BME280;10774;42.178;26.578;2022-08-18T05:55:55;99556.13;;;26.22;59.69
21234;BME280;10774;42.178;26.578;2022-08-18T05:58:45;99555.53;;;26.47;59.71
21234;BME280;10774;42.178;26.578;2022-08-18T06:01:17;99541.78;;;26.60;57.73
21234;BME280;10774;42.178;26.578;2022-08-18T06:03:49;99548.34;;;26.72;57.35
21234;BME280;10774;42.178;26.578;2022-08-18T06:06:23;99558.72;;;26.83;57.33
21234;BME280;10774;42.178;26.578;2022-08-18T06:09:09;99544.69;;;27.25;56.04
21234;BME280;10774;42.178;26.578;2022-08-18T06:11:36;99557.44;;;27.13;56.90
21234;BME280;10774;42.178;26.578;2022-08-18T06:14:01;99554.50;;;27.07;57.36
21234;BME280;10774;42.178;26.578;2022-08-18T06:19:59;99547.38;;;27.51;56.21
21234;BME280;10774;42.178;26.578;2022-08-18T06:30:14;99538.72;;;27.48;57.68
21234;BME280;10774;42.178;26.578;2022-08-18T06:32:58;99544.00;;;28.01;54.86
21234;BME280;10774;42.178;26.578;2022-08-18T06:35:37;99563.75;;;28.29;52.44
21234;BME280;10774;42.178;26.578;2022-08-18T06:43:52;99556.19;;;28.18;51.65
21234;BME280;10774;42.178;26.578;2022-08-18T06:46:28;99560.94;;;28.04;52.64
21234;BME280;10774;42.178;26.578;2022-08-18T06:49:02;99553.25;;;28.13;52.34
21234;BME280;10774;42.178;26.578;2022-08-18T06:51:28;99547.03;;;27.86;53.71
21234;BME280;10774;42.178;26.578;2022-08-18T06:58:50;99558.50;;;28.84;50.25
21234;BME280;10774;42.178;26.578;2022-08-18T07:01:20;99566.31;;;28.87;48.56
21234;BME280;10774;42.178;26.578;2022-08-18T07:03:53;99569.69;;;28.89;46.43
21234;BME280;10774;42.178;26.578;2022-08-18T07:08:47;99565.59;;;28.99;47.05
21234;BME280;10774;42.178;26.578;2022-08-18T07:13:43;99551.78;;;28.99;45.81
21234;BME280;10774;42.178;26.578;2022-08-18T07:18:53;99562.09;;;29.53;45.08
21234;BME280;10774;42.178;26.578;2022-08-18T07:21:29;99554.94;;;29.64;44.58
21234;BME280;10774;42.178;26.578;2022-08-18T07:29:22;99561.97;;;29.78;43.77
21234;BME280;10774;42.178;26.578;2022-08-18T07:31:51;99564.44;;;29.68;43.98
21234;BME280;10774;42.178;26.578;2022-08-18T07:34:26;99548.97;;;29.79;44.19
21234;BME280;10774;42.178;26.578;2022-08-18T07:36:56;99568.56;;;30.26;43.68
21234;BME280;10774;42.178;26.578;2022-08-18T07:39:32;99560.53;;;30.06;42.47
21234;BME280;10774;42.178;26.578;2022-08-18T07:42:07;99554.88;;;30.01;42.30
21234;BME280;10774;42.178;26.578;2022-08-18T07:50:10;99550.50;;;30.65;42.42
21234;BME280;10774;42.178;26.578;2022-08-18T07:52:50;99539.63;;;30.63;41.81
21234;BME280;10774;42.178;26.578;2022-08-18T07:55:27;99552.50;;;30.46;42.15
21234;BME280;10774;42.178;26.578;2022-08-18T07:57:59;99545.16;;;30.52;42.42
21234;BME280;10774;42.178;26.578;2022-08-18T08:06:42;99539.72;;;31.22;41.17
21234;BME280;10774;42.178;26.578;2022-08-18T08:09:25;99536.81;;;31.17;41.04
21234;BME280;10774;42.178;26.578;2022-08-18T08:11:55;99539.47;;;31.35;40.62
21234;BME280;10774;42.178;26.578;2022-08-18T08:14:49;99524.28;;;31.26;40.83
21234;BME280;10774;42.178;26.578;2022-08-18T08:20:28;99535.25;;;31.73;40.08
21234;BME280;10774;42.178;26.578;2022-08-18T08:33:51;99513.91;;;31.85;38.59
21234;BME280;10774;42.178;26.578;2022-08-18T08:36:32;99513.56;;;32.27;40.15
21234;BME280;10774;42.178;26.578;2022-08-18T08:39:24;99519.19;;;32.32;38.09
21234;BME280;10774;42.178;26.578;2022-08-18T08:42:14;99519.25;;;32.04;38.15
21234;BME280;10774;42.178;26.578;2022-08-18T08:44:49;99522.69;;;32.11;37.99
21234;BME280;10774;42.178;26.578;2022-08-18T08:47:30;99519.34;;;32.09;37.41
21234;BME280;10774;42.178;26.578;2022-08-18T08:55:26;99517.81;;;32.46;37.20
21234;BME280;10774;42.178;26.578;2022-08-18T08:58:07;99527.84;;;32.19;37.65
21234;BME280;10774;42.178;26.578;2022-08-18T09:00:38;99509.72;;;32.28;37.04
21234;BME280;10774;42.178;26.578;2022-08-18T09:03:22;99525.22;;;32.58;37.64
21234;BME280;10774;42.178;26.578;2022-08-18T09:06:25;99513.94;;;32.81;37.21
21234;BME280;10774;42.178;26.578;2022-08-18T09:11:54;99513.56;;;33.11;36.41
21234;BME280;10774;42.178;26.578;2022-08-18T09:23:15;99499.38;;;32.57;35.86
21234;BME280;10774;42.178;26.578;2022-08-18T09:28:14;99496.53;;;33.68;35.79
21234;BME280;10774;42.178;26.578;2022-08-18T09:39:25;99495.84;;;33.34;34.66
21234;BME280;10774;42.178;26.578;2022-08-18T09:42:14;99482.97;;;33.72;34.20
21234;BME280;10774;42.178;26.578;2022-08-18T09:50:37;99481.66;;;34.01;33.36
21234;BME280;10774;42.178;26.578;2022-08-18T09:55:50;99483.88;;;34.31;33.99
21234;BME280;10774;42.178;26.578;2022-08-18T10:01:17;99475.94;;;34.45;33.68
21234;BME280;10774;42.178;26.578;2022-08-18T10:06:49;99467.25;;;34.79;33.47
21234;BME280;10774;42.178;26.578;2022-08-18T10:09:36;99466.06;;;35.59;32.65
21234;BME280;10774;42.178;26.578;2022-08-18T10:17:38;99469.38;;;35.51;32.33
21234;BME280;10774;42.178;26.578;2022-08-18T10:22:57;99476.63;;;34.30;32.00
21234;BME280;10774;42.178;26.578;2022-08-18T10:28:00;99465.81;;;35.66;31.66
21234;BME280;10774;42.178;26.578;2022-08-18T10:32:58;99467.75;;;34.66;31.55
21234;BME280;10774;42.178;26.578;2022-08-18T10:38:01;99463.38;;;34.16;33.15
21234;BME280;10774;42.178;26.578;2022-08-18T10:40:30;99477.50;;;34.36;32.45
21234;BME280;10774;42.178;26.578;2022-08-18T10:43:07;99467.75;;;34.66;31.95
21234;BME280;10774;42.178;26.578;2022-08-18T10:45:45;99460.78;;;35.10;32.38
21234;BME280;10774;42.178;26.578;2022-08-18T10:48:21;99459.47;;;36.06;32.73
21234;BME280;10774;42.178;26.578;2022-08-18T10:50:52;99457.22;;;35.20;31.92
21234;BME280;10774;42.178;26.578;2022-08-18T10:56:22;99460.06;;;34.88;31.65
21234;BME280;10774;42.178;26.578;2022-08-18T10:58:58;99451.56;;;34.68;31.77
21234;BME280;10774;42.178;26.578;2022-08-18T11:04:40;99469.31;;;34.94;32.29
21234;BME280;10774;42.178;26.578;2022-08-18T11:07:14;99458.03;;;34.73;31.72
21234;BME280;10774;42.178;26.578;2022-08-18T11:09:45;99459.25;;;34.88;31.97
21234;BME280;10774;42.178;26.578;2022-08-18T11:12:12;99444.38;;;35.19;32.02
21234;BME280;10774;42.178;26.578;2022-08-18T11:15:02;99441.03;;;35.95;31.30
21234;BME280;10774;42.178;26.578;2022-08-18T11:20:11;99447.72;;;35.21;31.35
21234;BME280;10774;42.178;26.578;2022-08-18T11:22:52;99442.59;;;34.98;31.69
21234;BME280;10774;42.178;26.578;2022-08-18T11:25:23;99447.03;;;35.51;31.16
21234;BME280;10774;42.178;26.578;2022-08-18T11:27:49;99443.63;;;35.34;31.14
21234;BME280;10774;42.178;26.578;2022-08-18T11:30:15;99447.41;;;35.07;31.43
21234;BME280;10774;42.178;26.578;2022-08-18T11:32:41;99444.00;;;35.63;30.51
21234;BME280;10774;42.178;26.578;2022-08-18T11:35:25;99433.53;;;35.23;30.98
21234;BME280;10774;42.178;26.578;2022-08-18T11:37:59;99441.03;;;35.27;30.44
21234;BME280;10774;42.178;26.578;2022-08-18T11:42:59;99435.34;;;35.70;30.40
21234;BME280;10774;42.178;26.578;2022-08-18T11:53:40;99430.72;;;35.18;30.46
21234;BME280;10774;42.178;26.578;2022-08-18T12:01:04;99415.84;;;35.80;29.23
21234;BME280;10774;42.178;26.578;2022-08-18T12:03:44;99413.09;;;36.16;30.04
21234;BME280;10774;42.178;26.578;2022-08-18T12:09:00;99408.00;;;35.67;29.25
21234;BME280;10774;42.178;26.578;2022-08-18T12:11:32;99397.38;;;35.58;29.75
21234;BME280;10774;42.178;26.578;2022-08-18T12:14:19;99390.66;;;35.65;29.29
21234;BME280;10774;42.178;26.578;2022-08-18T12:16:45;99392.19;;;35.15;29.88
21234;BME280;10774;42.178;26.578;2022-08-18T12:19:12;99395.31;;;34.76;30.24
21234;BME280;10774;42.178;26.578;2022-08-18T12:21:48;99391.47;;;34.87;31.09
21234;BME280;10774;42.178;26.578;2022-08-18T12:24:19;99380.09;;;35.67;29.95
21234;BME280;10774;42.178;26.578;2022-08-18T12:26:47;99394.00;;;36.99;30.24
21234;BME280;10774;42.178;26.578;2022-08-18T12:29:13;99392.25;;;37.24;28.84
21234;BME280;10774;42.178;26.578;2022-08-18T12:31:40;99390.69;;;36.87;28.17
21234;BME280;10774;42.178;26.578;2022-08-18T12:34:05;99387.97;;;36.51;28.85
21234;BME280;10774;42.178;26.578;2022-08-18T12:36:31;99386.00;;;36.21;28.67
21234;BME280;10774;42.178;26.578;2022-08-18T12:38:56;99391.16;;;35.41;29.54
21234;BME280;10774;42.178;26.578;2022-08-18T12:41:23;99386.28;;;35.99;28.68
21234;BME280;10774;42.178;26.578;2022-08-18T12:43:48;99391.34;;;36.12;28.33
21234;BME280;10774;42.178;26.578;2022-08-18T12:46:14;99382.06;;;36.37;27.96
21234;BME280;10774;42.178;26.578;2022-08-18T12:48:39;99380.69;;;36.09;28.09
21234;BME280;10774;42.178;26.578;2022-08-18T12:51:06;99375.66;;;35.96;28.78
21234;BME280;10774;42.178;26.578;2022-08-18T12:53:32;99386.28;;;36.55;27.67
21234;BME280;10774;42.178;26.578;2022-08-18T12:55:58;99384.91;;;36.02;28.12
21234;BME280;10774;42.178;26.578;2022-08-18T12:58:25;99383.41;;;35.63;28.11
21234;BME280;10774;42.178;26.578;2022-08-18T13:00:51;99380.09;;;35.72;28.60
21234;BME280;10774;42.178;26.578;2022-08-18T13:03:16;99387.84;;;35.44;29.25
21234;BME280;10774;42.178;26.578;2022-08-18T13:05:43;99380.16;;;36.02;28.58
21234;BME280;10774;42.178;26.578;2022-08-18T13:08:17;99384.34;;;36.46;27.59
21234;BME280;10774;42.178;26.578;2022-08-18T13:10:43;99380.63;;;36.81;26.51
21234;BME280;10774;42.178;26.578;2022-08-18T13:13:08;99381.22;;;36.62;27.45
21234;BME280;10774;42.178;26.578;2022-08-18T13:15:35;99373.44;;;36.29;27.99
21234;BME280;10774;42.178;26.578;2022-08-18T13:18:01;99374.41;;;37.04;27.62
21234;BME280;10774;42.178;26.578;2022-08-18T13:20:27;99375.97;;;37.26;27.33
21234;BME280;10774;42.178;26.578;2022-08-18T13:22:53;99384.50;;;36.95;28.42
21234;BME280;10774;42.178;26.578;2022-08-18T13:25:19;99387.31;;;36.90;28.02
21234;BME280;10774;42.178;26.578;2022-08-18T13:27:44;99382.88;;;36.74;28.49
21234;BME280;10774;42.178;26.578;2022-08-18T13:30:12;99380.41;;;37.42;27.73
21234;BME280;10774;42.178;26.578;2022-08-18T13:32:39;99367.38;;;37.66;27.77
21234;BME280;10774;42.178;26.578;2022-08-18T13:35:06;99379.03;;;37.34;28.39
21234;BME280;10774;42.178;26.578;2022-08-18T13:37:32;99382.47;;;37.16;27.74
21234;BME280;10774;42.178;26.578;2022-08-18T13:39:58;99374.81;;;36.36;29.11
21234;BME280;10774;42.178;26.578;2022-08-18T13:42:24;99373.88;;;36.97;28.01
21234;BME280;10774;42.178;26.578;2022-08-18T13:44:53;99390.72;;;36.67;28.25
21234;BME280;10774;42.178;26.578;2022-08-18T13:47:20;99361.13;;;35.94;29.06
21234;BME280;10774;42.178;26.578;2022-08-18T13:49:46;99379.25;;;36.63;29.37
21234;BME280;10774;42.178;26.578;2022-08-18T13:52:12;99387.50;;;38.13;26.91
21234;BME280;10774;42.178;26.578;2022-08-18T13:54:39;99378.53;;;38.98;27.21
21234;BME280;10774;42.178;26.578;2022-08-18T13:57:05;99375.38;;;40.04;24.97
21234;BME280;10774;42.178;26.578;2022-08-18T13:59:31;99375.75;;;38.45;26.57
21234;BME280;10774;42.178;26.578;2022-08-18T14:02:02;99376.13;;;37.60;27.50
21234;BME280;10774;42.178;26.578;2022-08-18T14:04:30;99378.34;;;38.02;27.39
21234;BME280;10774;42.178;26.578;2022-08-18T14:06:55;99382.53;;;37.60;27.34
21234;BME280;10774;42.178;26.578;2022-08-18T14:09:21;99381.13;;;37.08;28.09
21234;BME280;10774;42.178;26.578;2022-08-18T14:11:47;99381.81;;;37.45;27.89
21234;BME280;10774;42.178;26.578;2022-08-18T14:14:15;99380.53;;;38.05;27.43
21234;BME280;10774;42.178;26.578;2022-08-18T14:16:41;99370.00;;;36.78;28.30
21234;BME280;10774;42.178;26.578;2022-08-18T14:19:06;99380.28;;;37.62;27.17
21234;BME280;10774;42.178;26.578;2022-08-18T14:21:52;99372.78;;;37.53;26.98
21234;BME280;10774;42.178;26.578;2022-08-18T14:24:38;99371.69;;;38.56;25.97
21234;BME280;10774;42.178;26.578;2022-08-18T14:27:32;99374.16;;;37.60;26.92
21234;BME280;10774;42.178;26.578;2022-08-18T14:29:59;99383.56;;;37.20;28.09
21234;BME280;10774;42.178;26.578;2022-08-18T14:32:26;99375.72;;;37.22;27.84
21234;BME280;10774;42.178;26.578;2022-08-18T14:34:54;99374.56;;;37.78;26.84
21234;BME280;10774;42.178;26.578;2022-08-18T14:37:20;99371.63;;;38.61;26.47
21234;BME280;10774;42.178;26.578;2022-08-18T14:39:45;99387.50;;;39.24;25.21
21234;BME280;10774;42.178;26.578;2022-08-18T14:42:13;99376.13;;;39.10;25.41
21234;BME280;10774;42.178;26.578;2022-08-18T14:44:38;99362.53;;;37.82;27.09
21234;BME280;10774;42.178;26.578;2022-08-18T14:47:04;99381.94;;;38.08;27.41
21234;BME280;10774;42.178;26.578;2022-08-18T14:49:30;99369.22;;;37.86;27.33
21234;BME280;10774;42.178;26.578;2022-08-18T14:52:00;99371.34;;;37.60;27.42
21234;BME280;10774;42.178;26.578;2022-08-18T14:54:26;99373.47;;;37.74;27.47
21234;BME280;10774;42.178;26.578;2022-08-18T14:56:51;99366.00;;;37.59;27.66
21234;BME280;10774;42.178;26.578;2022-08-18T14:59:17;99376.59;;;39.41;26.66
21234;BME280;10774;42.178;26.578;2022-08-18T15:01:42;99379.19;;;39.94;25.35
21234;BME280;10774;42.178;26.578;2022-08-18T15:04:08;99370.91;;;41.37;24.06
21234;BME280;10774;42.178;26.578;2022-08-18T15:06:35;99369.94;;;42.14;23.02
21234;BME280;10774;42.178;26.578;2022-08-18T15:09:01;99361.63;;;42.71;22.27
21234;BME280;10774;42.178;26.578;2022-08-18T15:11:26;99376.97;;;42.03;23.25
21234;BME280;10774;42.178;26.578;2022-08-18T15:13:52;99378.31;;;41.69;23.51
21234;BME280;10774;42.178;26.578;2022-08-18T15:16:19;99369.31;;;43.19;22.68
21234;BME280;10774;42.178;26.578;2022-08-18T15:18:46;99351.59;;;40.75;23.46
21234;BME280;10774;42.178;26.578;2022-08-18T15:21:12;99364.56;;;42.26;23.24
21234;BME280;10774;42.178;26.578;2022-08-18T15:23:56;99364.41;;;43.51;22.48
21234;BME280;10774;42.178;26.578;2022-08-18T15:26:40;99364.59;;;43.72;21.60
21234;BME280;10774;42.178;26.578;2022-08-18T15:29:08;99358.84;;;43.28;21.97
21234;BME280;10774;42.178;26.578;2022-08-18T15:31:35;99369.41;;;44.06;21.26
21234;BME280;10774;42.178;26.578;2022-08-18T15:34:01;99367.91;;;43.74;22.29
21234;BME280;10774;42.178;26.578;2022-08-18T15:36:27;99363.28;;;43.95;22.68